Time;durP1;ratioP1;P1;durP2;ratioP2;P2;SDS_P1;SDS_P2;PMS_P1;PMS_P2;Temp;Humidity;BMP_temperature;BMP_pressure;BME280_temperature;BME280_humidity;BME280_pressure;Samples;Min_cycle;Max_cycle;Signal;HPM_P1;HPM_P2
2023/05/23 00:01:05;;;;;;;75.47;33.95;;;14.20;99.90;;;;;;5025383;28;20114;-55
2023/05/23 00:03:31;;;;;;;74.00;36.00;;;14.20;99.90;;;;;;5025991;28;20415;-54
2023/05/23 00:05:57;;;;;;;66.47;32.78;;;14.20;99.90;;;;;;5025782;28;20038;-52
2023/05/23 00:08:24;;;;;;;62.92;32.63;;;14.20;99.90;;;;;;5026107;28;20129;-53
2023/05/23 00:10:49;;;;;;;62.40;30.30;;;14.20;99.90;;;;;;5025335;28;20045;-54
2023/05/23 00:13:16;;;;;;;60.08;31.88;;;14.20;99.90;;;;;;5026028;28;20586;-53
2023/05/23 00:15:42;;;;;;;52.28;30.02;;;14.20;99.90;;;;;;5008600;28;20049;-54
2023/05/23 00:18:09;;;;;;;50.60;28.92;;;14.30;99.90;;;;;;5028316;28;20037;-51
2023/05/23 00:20:36;;;;;;;50.63;29.55;;;14.20;99.90;;;;;;5011470;28;20381;-51
2023/05/23 00:23:03;;;;;;;51.33;28.65;;;14.20;99.90;;;;;;5029203;28;20500;-54
2023/05/23 00:25:33;;;;;;;51.83;28.27;;;14.30;99.90;;;;;;5028556;28;20408;-53
2023/05/23 00:28:03;;;;;;;48.28;26.60;;;14.30;99.90;;;;;;5029893;28;20042;-55
2023/05/23 00:30:30;;;;;;;46.30;27.13;;;14.40;99.90;;;;;;5029595;28;20059;-52
2023/05/23 00:32:57;;;;;;;48.17;26.25;;;14.20;99.90;;;;;;5029718;28;20049;-52
2023/05/23 00:35:23;;;;;;;43.70;24.60;;;14.20;99.90;;;;;;5029520;28;20049;-55
2023/05/23 00:37:50;;;;;;;39.08;24.02;;;14.20;99.90;;;;;;5011133;28;20076;-55
2023/05/23 00:40:19;;;;;;;42.42;23.95;;;14.10;99.90;;;;;;5028477;28;20045;-55
2023/05/23 00:42:45;;;;;;;40.10;22.30;;;14.10;99.90;;;;;;5029561;28;20181;-54
2023/05/23 00:45:11;;;;;;;45.13;22.92;;;14.10;99.90;;;;;;5011069;28;20515;-55
2023/05/23 00:47:40;;;;;;;40.55;21.63;;;14.00;99.90;;;;;;5029554;28;20049;-51
2023/05/23 00:50:08;;;;;;;44.67;21.70;;;14.10;99.90;;;;;;5029405;28;20421;-54
2023/05/23 00:52:34;;;;;;;35.47;20.42;;;14.10;99.90;;;;;;5010852;28;20083;-55
2023/05/23 00:55:00;;;;;;;33.90;18.67;;;14.10;99.90;;;;;;5028305;28;20045;-55
2023/05/23 00:57:27;;;;;;;38.05;19.17;;;14.10;99.90;;;;;;5029221;28;20056;-52
2023/05/23 00:59:52;;;;;;;29.77;18.00;;;14.10;99.90;;;;;;5010738;28;20531;-51
2023/05/23 01:02:20;;;;;;;31.88;17.73;;;14.10;99.90;;;;;;5028294;28;20053;-50
2023/05/23 01:04:52;;;;;;;27.40;16.80;;;14.20;99.90;;;;;;5011766;28;20092;-55
2023/05/23 01:07:19;;;;;;;31.77;16.45;;;14.10;99.90;;;;;;5109078;22;20623;-55
2023/05/23 01:09:45;;;;;;;27.83;17.75;;;14.40;99.90;;;;;;5028279;28;20091;-55
2023/05/23 01:12:36;;;;;;;29.48;18.42;;;14.20;99.90;;;;;;5027715;28;20038;-54
2023/05/23 01:15:22;;;;;;;30.67;20.10;;;14.20;99.90;;;;;;5028492;28;20562;-55
2023/05/23 01:18:02;;;;;;;29.77;19.83;;;14.20;99.90;;;;;;5027809;28;20049;-52
2023/05/23 01:20:35;;;;;;;26.60;18.75;;;14.20;99.90;;;;;;5028421;28;20099;-52
2023/05/23 01:23:13;;;;;;;26.33;19.17;;;14.20;99.90;;;;;;5027979;28;20049;-50
2023/05/23 01:26:17;;;;;;;28.25;18.10;;;14.20;99.90;;;;;;5009672;28;20069;-54
2023/05/23 01:28:47;;;;;;;29.25;19.25;;;14.20;99.90;;;;;;5027415;28;20041;-55
2023/05/23 01:31:15;;;;;;;28.08;18.42;;;14.20;99.90;;;;;;5028225;28;20460;-54
2023/05/23 01:33:42;;;;;;;30.45;18.42;;;14.20;99.90;;;;;;5027631;28;20053;-53
2023/05/23 01:36:11;;;;;;;28.42;19.15;;;14.20;99.90;;;;;;5010189;28;20050;-54
2023/05/23 01:38:37;;;;;;;26.70;19.50;;;14.10;99.90;;;;;;5027794;28;20088;-54
2023/05/23 01:41:02;;;;;;;28.88;19.20;;;14.00;99.90;;;;;;5009333;28;20077;-55
2023/05/23 01:43:28;;;;;;;24.45;18.73;;;14.10;99.90;;;;;;5027655;28;20049;-54
2023/05/23 01:45:56;;;;;;;32.88;18.52;;;14.10;99.90;;;;;;5027619;28;20520;-54
2023/05/23 01:48:24;;;;;;;26.38;17.55;;;14.10;99.90;;;;;;5027837;28;20052;-55
2023/05/23 01:50:50;;;;;;;26.30;17.15;;;14.00;99.90;;;;;;5027461;28;20050;-54
2023/05/23 01:53:19;;;;;;;26.83;16.60;;;14.00;99.90;;;;;;5028068;28;20411;-52
2023/05/23 01:55:45;;;;;;;25.75;15.75;;;14.10;99.90;;;;;;5027196;28;20187;-55
2023/05/23 01:58:11;;;;;;;24.60;15.02;;;14.00;99.90;;;;;;5026877;28;20116;-53
2023/05/23 02:00:37;;;;;;;25.85;15.25;;;14.00;99.90;;;;;;5027332;28;20511;-54
2023/05/23 02:03:03;;;;;;;25.15;14.73;;;13.90;99.90;;;;;;4993412;28;20045;-54
2023/05/23 02:05:29;;;;;;;21.88;15.18;;;13.90;99.90;;;;;;5027362;28;20448;-54
2023/05/23 02:07:55;;;;;;;20.13;13.85;;;13.90;99.90;;;;;;5027106;28;20143;-54
2023/05/23 02:10:21;;;;;;;19.30;12.68;;;13.90;99.90;;;;;;5009075;28;20057;-54
2023/05/23 02:12:47;;;;;;;19.30;13.13;;;13.90;99.90;;;;;;5027407;28;20052;-53
2023/05/23 02:15:12;;;;;;;20.17;12.98;;;13.90;99.90;;;;;;5026729;28;20045;-53
2023/05/23 02:17:40;;;;;;;21.77;12.88;;;13.90;99.90;;;;;;5027246;28;20037;-54
2023/05/23 02:20:06;;;;;;;23.27;12.75;;;13.80;99.90;;;;;;5027175;28;20094;-54
2023/05/23 02:22:32;;;;;;;18.90;11.73;;;13.80;99.90;;;;;;5026042;28;20057;-53
2023/05/23 02:24:57;;;;;;;22.58;11.13;;;13.80;99.90;;;;;;5026027;28;20052;-55
2023/05/23 02:27:23;;;;;;;21.90;10.93;;;13.70;99.90;;;;;;5026992;28;20049;-55
2023/05/23 02:29:48;;;;;;;22.10;10.90;;;13.80;99.90;;;;;;5027302;28;20543;-52
2023/05/23 02:32:14;;;;;;;20.52;8.95;;;13.90;99.90;;;;;;5027443;28;20132;-54
2023/05/23 02:34:40;;;;;;;18.23;9.18;;;13.70;99.90;;;;;;5026719;28;20048;-55
2023/05/23 02:37:06;;;;;;;21.25;9.68;;;13.70;99.90;;;;;;5026420;28;20046;-51
2023/05/23 02:39:33;;;;;;;23.00;10.18;;;13.70;99.90;;;;;;5025906;28;20060;-55
2023/05/23 02:41:59;;;;;;;20.33;9.63;;;13.60;99.90;;;;;;5026177;28;20038;-54
2023/05/23 02:44:24;;;;;;;22.77;10.98;;;13.80;99.90;;;;;;5026270;28;20046;-55
2023/05/23 02:46:50;;;;;;;30.00;9.57;;;13.60;99.90;;;;;;5026221;28;20704;-54
2023/05/23 02:49:15;;;;;;;19.80;9.45;;;13.60;99.90;;;;;;5009173;28;20468;-55
2023/05/23 02:51:41;;;;;;;18.88;9.95;;;13.60;99.90;;;;;;5026219;28;20412;-53
2023/05/23 02:54:07;;;;;;;19.08;10.77;;;13.70;99.90;;;;;;5025336;28;20046;-54
2023/05/23 02:56:32;;;;;;;16.90;10.15;;;13.40;99.90;;;;;;5026430;28;20519;-52
2023/05/23 02:58:58;;;;;;;19.05;10.75;;;13.50;99.90;;;;;;5026404;28;20073;-53
2023/05/23 03:01:23;;;;;;;22.55;11.00;;;13.50;99.90;;;;;;5009120;28;20053;-54
2023/05/23 03:03:49;;;;;;;23.40;11.10;;;13.50;99.90;;;;;;5026395;28;20551;-53
2023/05/23 03:06:15;;;;;;;23.23;10.57;;;13.60;99.90;;;;;;5026006;28;20068;-54
2023/05/23 03:08:42;;;;;;;22.83;10.35;;;13.40;99.90;;;;;;5026017;28;20042;-54
2023/05/23 03:11:07;;;;;;;24.23;10.32;;;13.40;99.90;;;;;;5025658;28;20077;-50
2023/05/23 03:13:34;;;;;;;22.00;10.07;;;13.40;99.90;;;;;;5025875;28;20072;-53
2023/05/23 03:16:00;;;;;;;22.38;9.55;;;13.40;99.90;;;;;;5026512;28;20087;-54
2023/05/23 03:18:26;;;;;;;18.25;9.73;;;13.30;99.90;;;;;;5026257;28;20049;-55
2023/05/23 03:20:52;;;;;;;20.73;9.07;;;13.40;99.90;;;;;;5025890;28;20037;-53
2023/05/23 03:23:17;;;;;;;20.25;8.23;;;14.10;99.90;;;;;;5026011;28;20427;-55
2023/05/23 03:25:43;;;;;;;20.35;8.50;;;13.20;99.90;;;;;;5008319;28;20062;-53
2023/05/23 03:28:08;;;;;;;21.73;8.75;;;13.10;99.90;;;;;;5025484;28;20045;-54
2023/05/23 03:30:34;;;;;;;21.20;8.75;;;13.10;99.90;;;;;;5026482;28;20094;-54
2023/05/23 03:33:00;;;;;;;19.25;8.90;;;13.00;99.90;;;;;;5026309;28;20400;-49
2023/05/23 03:35:26;;;;;;;20.45;8.85;;;13.00;99.90;;;;;;5025232;28;20514;-54
2023/05/23 03:37:52;;;;;;;15.27;7.65;;;13.00;99.90;;;;;;5008135;28;20062;-51
2023/05/23 03:40:17;;;;;;;14.05;7.63;;;12.90;99.90;;;;;;5007904;28;20451;-54
2023/05/23 03:42:43;;;;;;;17.55;8.07;;;12.90;99.90;;;;;;5026005;28;20160;-54
2023/05/23 03:45:08;;;;;;;17.58;6.50;;;12.90;99.90;;;;;;5025498;28;20132;-54
2023/05/23 03:47:34;;;;;;;12.18;6.43;;;12.90;99.90;;;;;;5026111;28;20057;-54
2023/05/23 03:50:00;;;;;;;15.68;7.00;;;12.80;99.90;;;;;;5025729;28;20052;-53
2023/05/23 03:52:25;;;;;;;14.35;7.20;;;12.80;99.90;;;;;;5027761;28;20184;-54
2023/05/23 03:54:51;;;;;;;14.52;7.78;;;12.80;99.90;;;;;;5029034;28;20045;-54
2023/05/23 03:57:16;;;;;;;14.27;7.07;;;12.90;99.90;;;;;;5029521;28;20048;-54
2023/05/23 03:59:42;;;;;;;20.08;7.60;;;12.80;99.90;;;;;;5029920;28;20052;-52
2023/05/23 04:02:08;;;;;;;22.20;8.07;;;12.70;99.90;;;;;;5029006;28;20049;-51
2023/05/23 04:04:33;;;;;;;20.55;8.40;;;12.70;99.90;;;;;;5029606;28;20092;-55
2023/05/23 04:07:00;;;;;;;21.85;7.93;;;12.60;99.90;;;;;;5011611;28;20215;-54
2023/05/23 04:09:26;;;;;;;21.05;7.97;;;12.70;99.90;;;;;;5029124;28;20053;-53
2023/05/23 04:11:51;;;;;;;19.67;7.60;;;12.60;99.90;;;;;;5029758;28;20036;-52
2023/05/23 04:14:19;;;;;;;20.73;7.82;;;12.70;99.90;;;;;;5029313;28;20103;-53
2023/05/23 04:16:44;;;;;;;18.88;8.30;;;12.60;99.90;;;;;;5029749;28;20053;-54
2023/05/23 04:19:11;;;;;;;18.63;7.97;;;12.60;99.90;;;;;;5028781;28;20048;-53
2023/05/23 04:21:36;;;;;;;17.95;8.13;;;12.60;99.90;;;;;;5011517;28;20080;-54
2023/05/23 04:24:02;;;;;;;21.63;9.20;;;12.60;99.90;;;;;;5028035;28;20083;-55
2023/05/23 04:26:28;;;;;;;24.27;9.15;;;12.60;99.90;;;;;;5028935;28;20040;-51
2023/05/23 04:28:53;;;;;;;20.13;9.02;;;12.60;99.90;;;;;;5029036;28;20076;-54
2023/05/23 04:31:21;;;;;;;20.63;8.63;;;12.50;99.90;;;;;;5028497;28;20400;-54
2023/05/23 04:33:48;;;;;;;18.50;8.27;;;12.50;99.90;;;;;;5028359;28;20482;-52
2023/05/23 04:36:14;;;;;;;24.55;8.27;;;12.60;99.90;;;;;;5029267;28;20396;-53
2023/05/23 04:38:40;;;;;;;18.42;7.38;;;12.60;99.90;;;;;;5028375;28;20045;-53
2023/05/23 04:41:06;;;;;;;15.80;7.07;;;12.60;99.90;;;;;;5011839;28;20627;-51
2023/05/23 04:43:32;;;;;;;21.08;7.50;;;12.60;99.90;;;;;;5028059;28;20385;-55
2023/05/23 04:45:59;;;;;;;21.45;7.28;;;12.50;99.90;;;;;;5009726;28;20465;-56
2023/05/23 04:48:26;;;;;;;22.10;6.78;;;12.50;99.90;;;;;;5009321;28;20078;-53
2023/05/23 04:50:52;;;;;;;19.65;6.50;;;12.60;99.90;;;;;;4991304;28;20124;-52
2023/05/23 04:53:18;;;;;;;18.00;6.30;;;12.50;99.90;;;;;;5009090;28;20038;-54
2023/05/23 04:55:43;;;;;;;15.80;6.30;;;12.50;99.90;;;;;;5008209;28;20458;-51
2023/05/23 04:58:09;;;;;;;18.38;6.32;;;12.70;99.90;;;;;;4990962;28;20049;-55
2023/05/23 05:00:34;;;;;;;18.52;5.97;;;12.60;99.90;;;;;;5009057;28;20125;-55
2023/05/23 05:03:00;;;;;;;14.65;5.88;;;12.50;99.90;;;;;;5008792;28;20424;-53
2023/05/23 05:05:26;;;;;;;13.43;5.43;;;12.50;99.90;;;;;;5008315;28;20045;-55
2023/05/23 05:07:52;;;;;;;15.02;5.18;;;12.60;99.90;;;;;;4991191;28;20569;-54
2023/05/23 05:10:18;;;;;;;15.98;5.28;;;12.50;99.90;;;;;;5008326;28;20677;-53
2023/05/23 05:12:45;;;;;;;15.88;5.55;;;12.60;99.90;;;;;;5008482;28;20042;-54
2023/05/23 05:15:12;;;;;;;13.93;5.70;;;12.50;99.90;;;;;;5008303;28;20041;-54
2023/05/23 05:17:38;;;;;;;14.73;5.22;;;12.50;99.90;;;;;;5008896;28;20168;-54
2023/05/23 05:20:07;;;;;;;17.45;5.45;;;12.40;99.90;;;;;;4990973;28;20070;-55
2023/05/23 05:22:39;;;;;;;20.38;5.63;;;12.40;99.90;;;;;;5008114;28;20049;-53
2023/05/23 05:25:06;;;;;;;14.65;4.68;;;12.40;99.90;;;;;;5008021;28;20050;-54
2023/05/23 05:27:32;;;;;;;14.98;4.55;;;12.40;99.90;;;;;;5008541;28;20046;-50
2023/05/23 05:30:03;;;;;;;20.50;5.70;;;12.40;99.90;;;;;;5007807;28;20417;-54
2023/05/23 05:32:30;;;;;;;15.05;4.95;;;12.40;99.90;;;;;;5008787;28;20045;-54
2023/05/23 05:34:55;;;;;;;13.77;4.80;;;13.40;99.90;;;;;;5008066;28;20046;-53
2023/05/23 05:37:21;;;;;;;16.95;4.95;;;12.40;99.90;;;;;;4989855;28;20046;-52
2023/05/23 05:39:47;;;;;;;14.77;4.63;;;12.40;99.90;;;;;;5007777;28;20116;-54
2023/05/23 05:42:12;;;;;;;18.50;5.72;;;12.40;99.90;;;;;;5008751;28;20116;-55
2023/05/23 05:44:38;;;;;;;20.00;6.70;;;12.30;99.90;;;;;;5008240;28;20073;-55
2023/05/23 05:47:04;;;;;;;19.45;6.68;;;12.30;99.90;;;;;;5007869;28;20046;-50
2023/05/23 05:49:29;;;;;;;20.20;7.22;;;12.20;99.90;;;;;;5008591;28;20045;-54
2023/05/23 05:51:55;;;;;;;16.35;6.85;;;12.20;99.90;;;;;;5008090;28;20052;-50
2023/05/23 05:54:20;;;;;;;23.67;7.35;;;12.20;99.90;;;;;;5006894;28;20478;-54
2023/05/23 05:56:47;;;;;;;24.65;7.82;;;12.10;99.90;;;;;;5007886;28;20427;-52
2023/05/23 05:59:12;;;;;;;19.83;7.22;;;12.10;99.90;;;;;;5007775;28;20050;-55
2023/05/23 06:01:38;;;;;;;21.92;7.40;;;12.00;99.90;;;;;;5007878;28;20038;-54
2023/05/23 06:04:04;;;;;;;20.85;7.78;;;12.00;99.90;;;;;;5007227;28;20104;-50
2023/05/23 06:06:30;;;;;;;19.05;7.72;;;12.00;99.90;;;;;;5007872;28;20093;-55
2023/05/23 06:08:56;;;;;;;18.70;7.78;;;12.00;99.90;;;;;;5007410;28;20046;-53
2023/05/23 06:11:21;;;;;;;17.52;6.82;;;12.10;99.90;;;;;;5007463;28;20052;-54
2023/05/23 06:13:47;;;;;;;20.83;7.10;;;12.00;99.90;;;;;;5007985;28;20046;-49
2023/05/23 06:16:13;;;;;;;17.17;6.70;;;11.90;99.90;;;;;;5007485;28;20099;-55
2023/05/23 06:18:39;;;;;;;16.05;6.25;;;11.90;99.90;;;;;;5007263;28;20088;-50
2023/05/23 06:21:05;;;;;;;15.88;6.22;;;11.90;99.90;;;;;;5007943;28;20069;-53
2023/05/23 06:23:31;;;;;;;18.38;6.32;;;11.90;99.90;;;;;;5006831;28;20081;-53
2023/05/23 06:25:58;;;;;;;14.32;6.07;;;11.90;99.90;;;;;;5007729;28;20104;-53
2023/05/23 06:28:24;;;;;;;15.43;5.60;;;11.90;99.90;;;;;;5007130;28;20053;-53
2023/05/23 06:30:49;;;;;;;21.40;6.93;;;11.90;99.90;;;;;;4989635;28;20061;-50
2023/05/23 06:33:15;;;;;;;14.43;5.60;;;11.90;99.90;;;;;;5007063;28;20072;-54
2023/05/23 06:35:41;;;;;;;15.65;5.60;;;11.80;99.90;;;;;;5006980;28;20049;-54
2023/05/23 06:38:07;;;;;;;17.67;5.72;;;11.80;99.90;;;;;;5007020;28;20050;-53
2023/05/23 06:40:33;;;;;;;16.33;5.32;;;11.90;99.90;;;;;;5007120;28;20042;-49
2023/05/23 06:42:58;;;;;;;14.20;4.53;;;12.00;99.90;;;;;;5007148;28;20063;-50
2023/05/23 06:45:24;;;;;;;15.20;4.40;;;11.90;99.90;;;;;;5006864;28;20061;-55
2023/05/23 06:47:50;;;;;;;15.30;5.07;;;11.90;99.90;;;;;;5007537;28;20506;-53
2023/05/23 06:50:18;;;;;;;16.70;5.15;;;11.90;99.90;;;;;;5006762;28;20392;-55
2023/05/23 06:52:45;;;;;;;15.35;4.32;;;11.90;99.90;;;;;;5006558;28;20052;-52
2023/05/23 06:55:16;;;;;;;13.52;4.38;;;12.00;99.90;;;;;;5006455;28;20038;-52
2023/05/23 06:57:42;;;;;;;13.75;4.47;;;12.10;99.90;;;;;;5006740;28;20046;-52
2023/05/23 07:00:09;;;;;;;14.68;4.60;;;12.00;99.90;;;;;;5006779;28;20577;-53
2023/05/23 07:02:35;;;;;;;12.00;4.50;;;12.00;99.90;;;;;;4989250;28;20050;-53
2023/05/23 07:05:00;;;;;;;15.57;4.70;;;11.90;99.90;;;;;;5006468;28;20049;-56
2023/05/23 07:07:26;;;;;;;12.52;3.90;;;11.90;99.90;;;;;;5006104;28;20058;-54
2023/05/23 07:09:52;;;;;;;19.27;4.72;;;11.90;99.90;;;;;;5005534;28;20100;-57
2023/05/23 07:12:17;;;;;;;19.02;4.40;;;12.00;99.90;;;;;;4988967;28;20454;-53
2023/05/23 07:14:43;;;;;;;14.90;4.93;;;12.20;99.90;;;;;;4989248;28;20046;-54
2023/05/23 07:17:08;;;;;;;22.75;4.20;;;12.20;99.90;;;;;;5006112;28;20547;-54
2023/05/23 07:19:34;;;;;;;24.98;4.90;;;12.60;99.90;;;;;;4989112;28;20072;-54
2023/05/23 07:21:59;;;;;;;15.32;4.53;;;12.30;99.90;;;;;;5006881;28;20180;-54
2023/05/23 07:24:25;;;;;;;15.55;4.15;;;12.40;99.90;;;;;;5005451;28;20477;-49
2023/05/23 07:26:51;;;;;;;20.20;4.57;;;12.50;99.90;;;;;;5005952;28;20103;-54
2023/05/23 07:29:16;;;;;;;18.88;4.57;;;12.30;99.90;;;;;;5006684;28;20040;-51
2023/05/23 07:31:42;;;;;;;21.55;4.30;;;12.40;99.90;;;;;;5006350;28;20093;-44
2023/05/23 07:34:07;;;;;;;18.30;4.30;;;12.50;99.90;;;;;;5006634;28;20046;-57
2023/05/23 07:36:34;;;;;;;20.30;5.03;;;12.60;99.90;;;;;;5005591;28;20049;-58
2023/05/23 07:39:00;;;;;;;26.45;4.93;;;12.70;99.90;;;;;;5005212;28;20437;-56
2023/05/23 07:41:26;;;;;;;25.42;5.10;;;12.80;99.90;;;;;;5005472;28;20072;-68
2023/05/23 07:43:51;;;;;;;23.58;8.88;;;12.90;99.90;;;;;;4988385;28;20042;-73
2023/05/23 07:46:17;;;;;;;17.90;4.43;;;13.20;99.90;;;;;;5005777;28;20046;-53
2023/05/23 07:48:43;;;;;;;20.08;5.05;;;13.00;99.90;;;;;;5005367;28;20485;-44
2023/05/23 07:51:08;;;;;;;15.70;3.88;;;12.90;99.90;;;;;;4989267;28;20034;-49
2023/05/23 07:53:38;;;;;;;16.83;4.65;;;12.90;99.90;;;;;;5005698;28;20050;-52
2023/05/23 07:56:04;;;;;;;17.25;4.32;;;12.90;99.90;;;;;;5006424;28;20042;-53
2023/05/23 07:58:30;;;;;;;17.48;4.25;;;12.90;99.90;;;;;;4988713;28;20065;-52
2023/05/23 08:00:56;;;;;;;21.42;4.78;;;12.90;99.90;;;;;;5006168;28;20042;-51
2023/05/23 08:03:22;;;;;;;19.42;4.68;;;12.90;99.90;;;;;;5006417;28;20121;-50
2023/05/23 08:05:48;;;;;;;16.40;4.05;;;13.10;99.90;;;;;;4988365;28;20137;-51
2023/05/23 08:08:14;;;;;;;16.02;4.30;;;12.90;99.90;;;;;;5005273;28;20061;-51
2023/05/23 08:10:40;;;;;;;17.23;3.85;;;13.10;99.90;;;;;;4988695;28;20076;-51
2023/05/23 08:13:05;;;;;;;17.92;4.72;;;13.00;99.90;;;;;;5005464;28;20399;-51
2023/05/23 08:15:32;;;;;;;20.67;4.68;;;13.00;99.90;;;;;;5005930;28;20645;-52
2023/05/23 08:17:59;;;;;;;15.70;4.03;;;13.00;99.90;;;;;;5009028;28;20077;-49
2023/05/23 08:20:29;;;;;;;24.45;4.55;;;13.00;99.90;;;;;;5026021;28;20096;-55
2023/05/23 08:23:00;;;;;;;14.57;4.30;;;13.00;99.90;;;;;;5024755;28;20041;-54
2023/05/23 08:25:29;;;;;;;16.58;4.18;;;13.00;99.90;;;;;;5025991;28;20042;-52
2023/05/23 08:27:59;;;;;;;19.10;4.28;;;13.20;99.90;;;;;;5025321;28;20080;-51
2023/05/23 08:30:26;;;;;;;16.42;3.78;;;13.30;99.90;;;;;;5025107;28;20488;-51
2023/05/23 08:32:54;;;;;;;18.50;4.18;;;13.40;99.90;;;;;;5025606;28;20060;-49
2023/05/23 08:35:20;;;;;;;22.17;4.95;;;13.50;99.90;;;;;;5025035;28;20037;-52
2023/05/23 08:37:46;;;;;;;20.15;4.28;;;13.40;99.90;;;;;;5025423;28;20150;-53
2023/05/23 08:40:19;;;;;;;17.27;4.35;;;13.60;99.90;;;;;;5027418;28;20075;-53
2023/05/23 08:42:46;;;;;;;18.80;3.92;;;13.50;99.90;;;;;;5028821;28;20041;-53
2023/05/23 08:45:12;;;;;;;18.58;4.15;;;13.60;99.90;;;;;;5029735;28;20041;-52
2023/05/23 08:47:43;;;;;;;14.90;3.92;;;13.90;99.90;;;;;;5011072;28;20056;-52
2023/05/23 08:50:12;;;;;;;14.35;4.13;;;14.40;99.90;;;;;;5028559;28;20415;-52
2023/05/23 08:52:43;;;;;;;16.20;4.07;;;14.70;99.90;;;;;;5028760;28;20041;-52
2023/05/23 08:55:10;;;;;;;25.50;5.53;;;14.90;99.90;;;;;;5028348;28;20057;-52
2023/05/23 08:57:37;;;;;;;16.35;4.07;;;14.80;99.90;;;;;;5028147;28;20045;-52
2023/05/23 09:00:09;;;;;;;17.70;3.78;;;14.40;99.90;;;;;;5028561;28;20064;-53
2023/05/23 09:02:35;;;;;;;13.95;3.78;;;14.80;99.90;;;;;;5028508;28;20045;-49
2023/05/23 09:05:01;;;;;;;16.60;3.67;;;15.00;99.90;;;;;;5028414;28;20047;-53
2023/05/23 09:07:28;;;;;;;18.88;4.30;;;15.30;99.90;;;;;;5027980;28;20469;-51
2023/05/23 09:09:53;;;;;;;23.42;4.63;;;15.40;99.90;;;;;;5028055;28;20084;-51
2023/05/23 09:12:21;;;;;;;19.25;4.40;;;15.10;99.90;;;;;;5027806;28;20079;-51
2023/05/23 09:14:47;;;;;;;16.27;4.47;;;15.00;99.90;;;;;;5009770;28;20049;-53
2023/05/23 09:17:18;;;;;;;21.60;4.63;;;14.80;99.90;;;;;;5028001;28;20057;-51
2023/05/23 09:19:46;;;;;;;23.15;5.30;;;14.50;99.90;;;;;;5027845;28;20042;-50
2023/05/23 09:22:12;;;;;;;17.50;4.72;;;14.60;99.90;;;;;;5027532;28;20050;-51
2023/05/23 09:24:37;;;;;;;16.67;4.13;;;14.50;99.90;;;;;;5009747;28;20049;-53
2023/05/23 09:27:07;;;;;;;20.38;3.95;;;14.50;99.90;;;;;;5028309;28;20086;-52
2023/05/23 09:29:39;;;;;;;12.80;3.38;;;14.50;99.90;;;;;;5027783;28;20077;-53
2023/05/23 09:32:12;;;;;;;14.75;4.32;;;14.70;99.90;;;;;;5028145;28;20587;-52
2023/05/23 09:35:04;;;;;;;16.30;4.50;;;14.40;99.90;;;;;;5027590;28;20073;-50
2023/05/23 09:37:44;;;;;;;15.35;3.60;;;14.40;99.90;;;;;;5027366;28;20115;-53
2023/05/23 09:40:12;;;;;;;15.65;3.95;;;14.40;99.90;;;;;;5027566;28;20706;-53
2023/05/23 09:42:43;;;;;;;18.00;5.60;;;14.20;99.90;;;;;;5027941;28;20057;-53
2023/05/23 09:45:09;;;;;;;17.20;3.95;;;14.20;99.90;;;;;;5027776;28;20053;-51
2023/05/23 09:47:35;;;;;;;15.77;3.78;;;14.30;99.90;;;;;;5027372;28;20099;-53
2023/05/23 09:50:00;;;;;;;10.95;3.83;;;14.30;99.90;;;;;;5026962;28;20455;-49
2023/05/23 09:52:26;;;;;;;18.35;4.43;;;14.30;99.90;;;;;;5027679;28;20052;-51
2023/05/23 09:54:52;;;;;;;18.52;3.95;;;14.30;99.90;;;;;;5025929;28;20041;-50
2023/05/23 09:57:20;;;;;;;16.65;4.40;;;14.40;99.90;;;;;;5027634;28;20041;-53
2023/05/23 09:59:53;;;;;;;16.60;4.07;;;14.40;99.90;;;;;;5027383;28;20042;-52
2023/05/23 10:02:50;;;;;;;17.50;4.18;;;14.40;99.90;;;;;;5026838;28;20054;-53
2023/05/23 10:05:23;;;;;;;14.40;3.95;;;14.50;99.90;;;;;;5009164;28;20081;-50
2023/05/23 10:07:49;;;;;;;19.27;4.45;;;14.70;99.90;;;;;;5025790;28;20460;-49
2023/05/23 10:10:15;;;;;;;19.15;3.95;;;14.80;99.90;;;;;;5026924;28;20053;-53
2023/05/23 10:12:46;;;;;;;20.13;3.65;;;14.70;99.90;;;;;;5026476;28;20034;-55
2023/05/23 10:15:15;;;;;;;17.02;4.20;;;14.90;99.90;;;;;;5026637;28;20385;-53
2023/05/23 10:18:08;;;;;;;15.05;3.60;;;15.20;99.90;;;;;;5027466;28;20076;-54
2023/05/23 10:20:38;;;;;;;16.92;3.72;;;15.60;99.90;;;;;;5026918;28;20458;-51
2023/05/23 10:23:04;;;;;;;16.20;3.92;;;15.70;99.90;;;;;;5026646;28;20053;-50
2023/05/23 10:25:30;;;;;;;14.82;4.28;;;15.80;99.90;;;;;;5026300;28;20476;-52
2023/05/23 10:28:00;;;;;;;15.77;3.70;;;15.90;99.90;;;;;;5026475;28;20045;-53
2023/05/23 10:30:27;;;;;;;15.88;3.33;;;16.00;99.90;;;;;;4993550;28;20053;-52
2023/05/23 10:32:54;;;;;;;20.65;4.20;;;15.90;99.90;;;;;;5026938;28;20042;-53
2023/05/23 10:35:44;;;;;;;13.95;2.80;;;15.90;99.90;;;;;;5026677;28;20037;-55
2023/05/23 10:38:29;;;;;;;14.13;3.65;;;15.80;99.90;;;;;;5026032;28;20068;-53
2023/05/23 10:41:06;;;;;;;12.18;2.95;;;15.70;99.90;;;;;;5027206;28;20045;-54
2023/05/23 10:43:51;;;;;;;12.15;3.70;;;15.60;99.90;;;;;;5026223;28;20045;-53
2023/05/23 10:46:22;;;;;;;15.82;3.53;;;15.60;99.90;;;;;;5026731;28;20112;-53
2023/05/23 10:48:56;;;;;;;11.07;2.95;;;15.60;99.90;;;;;;5026428;28;20519;-51
2023/05/23 10:51:21;;;;;;;16.55;3.80;;;15.80;99.90;;;;;;5026922;28;20526;-53
2023/05/23 10:53:53;;;;;;;16.25;3.25;;;16.00;99.90;;;;;;5026595;28;20037;-55
2023/05/23 10:56:23;;;;;;;16.98;4.13;;;16.10;99.90;;;;;;5026919;28;20072;-53
2023/05/23 10:58:53;;;;;;;15.57;3.83;;;15.90;99.90;;;;;;5027010;28;20104;-51
2023/05/23 11:01:19;;;;;;;15.85;3.33;;;15.70;99.90;;;;;;5026372;28;20155;-55
2023/05/23 11:03:45;;;;;;;16.15;3.40;;;15.60;99.90;;;;;;5026372;28;20483;-52
2023/05/23 11:06:42;;;;;;;14.82;3.53;;;15.50;99.90;;;;;;5026064;28;20089;-58
2023/05/23 11:09:17;;;;;;;12.30;3.95;;;15.60;99.90;;;;;;5025602;28;20110;-58
2023/05/23 11:11:49;;;;;;;15.02;3.40;;;15.60;99.90;;;;;;5026577;28;20057;-58
2023/05/23 11:14:15;;;;;;;11.75;2.60;;;15.70;99.90;;;;;;5026147;28;20076;-57
2023/05/23 11:16:42;;;;;;;10.50;2.38;;;15.60;99.90;;;;;;5026644;28;20376;-57
2023/05/23 11:19:17;;;;;;;8.88;2.60;;;15.50;99.50;;;;;;5026281;28;20056;-57
2023/05/23 11:21:44;;;;;;;12.55;2.63;;;15.60;99.40;;;;;;5008278;28;20076;-58
2023/05/23 11:24:10;;;;;;;13.88;3.00;;;15.90;99.10;;;;;;5025503;28;20167;-57
2023/05/23 11:26:36;;;;;;;11.75;2.70;;;16.10;98.20;;;;;;4992371;28;20456;-57
2023/05/23 11:29:04;;;;;;;11.77;2.97;;;16.10;98.90;;;;;;5025738;28;20387;-55
2023/05/23 11:31:35;;;;;;;12.65;2.97;;;16.10;98.70;;;;;;5026616;28;20045;-57
2023/05/23 11:34:01;;;;;;;15.10;2.75;;;16.00;98.80;;;;;;5025478;28;20575;-57
2023/05/23 11:36:27;;;;;;;15.25;3.97;;;16.00;99.10;;;;;;5025671;28;20057;-58
2023/05/23 11:38:54;;;;;;;15.75;2.95;;;16.00;99.00;;;;;;5024872;28;20033;-56
2023/05/23 11:41:20;;;;;;;14.60;3.33;;;15.90;99.50;;;;;;5027129;28;20689;-57
2023/05/23 11:43:52;;;;;;;12.32;3.28;;;15.80;99.30;;;;;;5025919;28;20045;-56
2023/05/23 11:46:18;;;;;;;12.60;3.47;;;15.60;99.80;;;;;;5026183;28;20488;-55
2023/05/23 11:48:45;;;;;;;18.08;3.55;;;15.50;99.90;;;;;;5008475;28;20045;-57
2023/05/23 11:51:11;;;;;;;14.88;3.25;;;15.50;99.90;;;;;;5026021;28;20095;-57
2023/05/23 11:53:37;;;;;;;11.98;3.50;;;15.50;99.90;;;;;;5025289;28;20072;-57
2023/05/23 11:56:03;;;;;;;20.40;4.43;;;15.50;99.90;;;;;;5026239;28;20085;-57
2023/05/23 11:58:38;;;;;;;14.75;3.22;;;15.60;99.90;;;;;;5026288;28;20038;-57
2023/05/23 12:01:05;;;;;;;;;;;15.90;99.90;;;;;;5026980;28;20404;-58
2023/05/23 12:03:32;;;;;;;14.05;3.70;;;16.20;99.20;;;;;;5008284;28;19921;-58
2023/05/23 12:05:58;;;;;;;13.45;3.20;;;16.10;99.30;;;;;;5025628;28;20514;-57
2023/05/23 12:08:24;;;;;;;14.45;3.25;;;16.10;99.20;;;;;;5025223;28;20045;-56
2023/05/23 12:10:56;;;;;;;11.07;2.50;;;16.20;99.50;;;;;;5025810;28;20049;-57
2023/05/23 12:13:28;;;;;;;13.52;3.35;;;16.40;98.00;;;;;;5027101;28;20151;-54
2023/05/23 12:15:59;;;;;;;13.23;3.30;;;16.50;97.90;;;;;;5011966;28;20546;-56
2023/05/23 12:18:28;;;;;;;13.18;2.95;;;16.50;97.80;;;;;;5030042;28;20407;-54
2023/05/23 12:20:53;;;;;;;12.65;2.83;;;16.30;97.30;;;;;;5029513;28;20033;-55
2023/05/23 12:23:23;;;;;;;12.88;3.25;;;16.10;98.30;;;;;;5028770;28;20042;-56
2023/05/23 12:25:53;;;;;;;30.23;16.52;;;15.90;98.70;;;;;;5029485;28;20077;-56
2023/05/23 12:28:20;;;;;;;17.20;4.45;;;15.80;99.50;;;;;;5028700;28;20467;-53
2023/05/23 12:30:47;;;;;;;14.75;4.05;;;15.80;99.90;;;;;;5029200;28;20166;-53
2023/05/23 12:33:13;;;;;;;15.05;3.90;;;15.80;99.90;;;;;;5028959;28;20037;-62
2023/05/23 12:35:43;;;;;;;13.07;3.75;;;15.90;99.90;;;;;;5028757;28;20049;-62
2023/05/23 12:38:13;;;;;;;19.60;3.35;;;16.00;99.90;;;;;;5028252;28;20049;-53